createdAt,value
2023-02-22T00:01:08.448Z,49.03
2023-02-22T00:03:17.847Z,56.45
2023-02-22T00:05:26.035Z,48.10
2023-02-22T00:07:36.806Z,51.28
2023-02-22T00:09:44.247Z,56.47
2023-02-22T00:11:51.889Z,55.33
2023-02-22T00:13:59.371Z,45.55
2023-02-22T00:16:06.992Z,42.33
2023-02-22T00:18:16.402Z,46.95
2023-02-22T00:20:24.452Z,45.75
2023-02-22T00:22:34.041Z,46.08
2023-02-22T00:24:41.124Z,43.97
2023-02-22T00:26:48.557Z,49.47
2023-02-22T00:28:58.044Z,49.00
2023-02-22T00:31:06.288Z,47.28
2023-02-22T00:33:13.853Z,46.90
2023-02-22T00:35:24.027Z,51.05
2023-02-22T00:37:33.833Z,54.53
2023-02-22T00:39:41.327Z,52.70
2023-02-22T00:41:48.757Z,57.33
2023-02-22T00:43:56.094Z,57.50
2023-02-22T00:46:03.064Z,58.50
2023-02-22T00:48:10.916Z,60.40
2023-02-22T00:50:18.461Z,67.15
2023-02-22T00:52:25.744Z,62.80
2023-02-22T00:54:34.564Z,64.18
2023-02-22T00:56:41.984Z,68.97
2023-02-22T00:58:49.028Z,53.83
2023-02-22T01:00:56.399Z,48.83
2023-02-22T01:03:03.597Z,48.70
2023-02-22T01:05:13.547Z,47.42
2023-02-22T01:07:20.552Z,45.95
2023-02-22T01:09:27.804Z,43.28
2023-02-22T01:11:36.890Z,44.58
2023-02-22T01:13:46.297Z,52.90
2023-02-22T01:15:53.345Z,42.60
2023-02-22T01:18:01.187Z,56.10
2023-02-22T01:20:13.390Z,44.67
2023-02-22T01:22:22.412Z,38.28
2023-02-22T01:24:29.395Z,35.50
2023-02-22T01:26:38.984Z,35.60
2023-02-22T01:28:47.234Z,43.58
2023-02-22T01:30:57.153Z,34.22
2023-02-22T01:33:05.550Z,37.05
2023-02-22T01:35:16.206Z,42.72
2023-02-22T01:37:24.034Z,33.28
2023-02-22T01:39:31.126Z,35.03
2023-02-22T01:41:42.966Z,37.22
2023-02-22T01:43:50.045Z,35.67
2023-02-22T01:46:05.095Z,34.83
2023-02-22T01:48:15.878Z,33.38
2023-02-22T01:50:23.212Z,36.53
2023-02-22T01:52:30.346Z,33.28
2023-02-22T01:54:40.595Z,33.10
2023-02-22T01:56:57.402Z,34.45
2023-02-22T01:59:08.576Z,27.65
2023-02-22T02:01:16.410Z,34.50
2023-02-22T02:03:28.583Z,32.50
2023-02-22T02:05:37.393Z,32.33
2023-02-22T02:07:47.549Z,32.20
2023-02-22T02:10:00.097Z,32.90
2023-02-22T02:12:11.944Z,33.80
2023-02-22T02:14:20.251Z,32.95
2023-02-22T02:16:30.272Z,30.88
2023-02-22T02:18:37.635Z,31.38
2023-02-22T02:20:52.245Z,31.50
2023-02-22T02:23:08.437Z,30.30
2023-02-22T02:25:50.228Z,28.85
2023-02-22T02:28:28.595Z,31.70
2023-02-22T02:31:19.847Z,30.25
2023-02-22T02:33:35.436Z,25.00
2023-02-22T02:35:52.752Z,32.03
2023-02-22T02:38:05.720Z,28.95
2023-02-22T02:40:23.338Z,28.30
2023-02-22T02:42:38.068Z,31.58
2023-02-22T02:44:49.281Z,30.75
2023-02-22T02:47:00.486Z,30.55
2023-02-22T02:49:13.835Z,30.63
2023-02-22T02:51:23.165Z,25.42
2023-02-22T02:53:35.984Z,28.00
2023-02-22T02:55:43.276Z,27.35
2023-02-22T02:57:50.189Z,27.35
2023-02-22T02:59:57.937Z,28.17
2023-02-22T03:02:35.174Z,26.13
2023-02-22T03:04:56.161Z,28.92
2023-02-22T03:07:23.752Z,31.83
2023-02-22T03:09:49.644Z,26.73
2023-02-22T03:12:03.556Z,26.95
2023-02-22T03:14:19.074Z,27.30
2023-02-22T03:16:35.565Z,22.75
2023-02-22T03:18:52.894Z,25.95
2023-02-22T03:21:13.269Z,24.75
2023-02-22T03:23:27.585Z,32.97
2023-02-22T03:25:40.859Z,23.02
2023-02-22T03:27:51.675Z,22.20
2023-02-22T03:30:02.551Z,23.05
2023-02-22T03:32:13.264Z,19.83
2023-02-22T03:34:24.516Z,18.73
2023-02-22T03:36:40.066Z,21.33
2023-02-22T03:38:49.292Z,21.08
2023-02-22T03:41:02.055Z,20.38
2023-02-22T03:43:13.436Z,21.70
2023-02-22T03:45:24.726Z,22.05
2023-02-22T03:47:38.757Z,21.83
2023-02-22T03:49:52.188Z,21.73
2023-02-22T03:52:02.898Z,20.88
2023-02-22T03:54:17.246Z,21.00
2023-02-22T03:56:29.449Z,18.00
2023-02-22T03:58:39.651Z,21.45
2023-02-22T04:00:46.936Z,20.88
2023-02-22T04:02:54.598Z,22.50
2023-02-22T04:05:01.807Z,20.48
2023-02-22T04:07:10.834Z,18.55
2023-02-22T04:09:18.169Z,20.08
2023-02-22T04:11:25.299Z,20.08
2023-02-22T04:13:32.157Z,21.42
2023-02-22T04:15:40.155Z,22.30
2023-02-22T04:17:49.510Z,19.88
2023-02-22T04:19:57.561Z,23.63
2023-02-22T04:22:07.043Z,22.33
2023-02-22T04:24:16.843Z,24.48
2023-02-22T04:26:23.916Z,22.05
2023-02-22T04:28:35.188Z,22.23
2023-02-22T04:30:52.523Z,19.27
2023-02-22T04:33:00.207Z,24.98
2023-02-22T04:35:07.547Z,22.95
2023-02-22T04:37:15.186Z,21.70
2023-02-22T04:39:24.024Z,21.98
2023-02-22T04:41:32.573Z,25.50
2023-02-22T04:43:39.552Z,20.63
2023-02-22T04:45:58.745Z,20.13
2023-02-22T04:48:05.759Z,21.13
2023-02-22T04:50:14.608Z,22.67
2023-02-22T04:52:21.840Z,22.30
2023-02-22T04:54:31.103Z,21.10
2023-02-22T04:56:38.100Z,20.80
2023-02-22T04:58:45.810Z,22.13
2023-02-22T05:00:54.047Z,19.33
2023-02-22T05:03:01.535Z,20.42
2023-02-22T05:05:09.075Z,24.27
2023-02-22T05:07:16.621Z,22.33
2023-02-22T05:09:23.592Z,19.25
2023-02-22T05:11:32.571Z,20.10
2023-02-22T05:13:39.539Z,18.25
2023-02-22T05:15:46.886Z,19.92
2023-02-22T05:17:53.859Z,19.40
2023-02-22T05:20:00.986Z,22.00
2023-02-22T05:22:08.153Z,22.67
2023-02-22T05:24:15.147Z,20.77
2023-02-22T05:26:22.121Z,19.15
2023-02-22T05:28:31.276Z,19.77
2023-02-22T05:30:40.744Z,18.05
2023-02-22T05:32:48.016Z,20.42
2023-02-22T05:34:54.876Z,21.33
2023-02-22T05:37:02.076Z,18.63
2023-02-22T05:39:09.154Z,19.58
2023-02-22T05:41:16.957Z,24.35
2023-02-22T05:43:24.084Z,16.30
2023-02-22T05:45:33.267Z,18.27
2023-02-22T05:47:40.223Z,17.58
2023-02-22T05:49:47.503Z,18.45
2023-02-22T05:51:56.751Z,20.17
2023-02-22T05:54:04.683Z,22.58
2023-02-22T05:56:11.830Z,18.05
2023-02-22T05:58:19.415Z,19.83
2023-02-22T06:00:28.867Z,16.90
2023-02-22T06:02:37.828Z,14.90
2023-02-22T06:04:47.039Z,19.35
2023-02-22T06:06:54.272Z,14.93
2023-02-22T06:09:01.369Z,15.95
2023-02-22T06:11:10.751Z,24.88
2023-02-22T06:13:17.883Z,15.95
2023-02-22T06:15:26.755Z,18.35
2023-02-22T06:17:33.628Z,15.85
2023-02-22T06:19:42.655Z,26.92
2023-02-22T06:21:53.859Z,15.20
2023-02-22T06:24:01.109Z,16.85
2023-02-22T06:26:08.074Z,16.58
2023-02-22T06:28:15.317Z,15.32
2023-02-22T06:30:24.473Z,17.33
2023-02-22T06:34:53.385Z,14.77
2023-02-22T06:37:01.668Z,15.38
2023-02-22T06:39:08.463Z,15.07
2023-02-22T06:41:16.688Z,15.15
2023-02-22T06:43:23.920Z,15.77
2023-02-22T06:45:31.456Z,12.77
2023-02-22T06:47:42.969Z,16.42
2023-02-22T06:52:03.494Z,15.18
2023-02-22T06:54:10.514Z,15.65
2023-02-22T06:56:17.812Z,15.30
2023-02-22T06:58:24.951Z,14.13
2023-02-22T07:00:33.223Z,12.95
2023-02-22T07:02:40.753Z,17.48
2023-02-22T07:04:49.151Z,15.15
2023-02-22T07:06:56.222Z,14.93
2023-02-22T07:09:04.799Z,14.75
2023-02-22T07:11:11.927Z,16.10
2023-02-22T07:13:18.802Z,15.75
2023-02-22T07:15:27.621Z,15.02
2023-02-22T07:17:34.548Z,15.60
2023-02-22T07:19:41.835Z,16.33
2023-02-22T07:21:49.630Z,14.90
2023-02-22T07:23:57.581Z,12.70
2023-02-22T07:26:08.857Z,15.65
2023-02-22T07:28:15.992Z,14.10
2023-02-22T07:30:26.578Z,13.27
2023-02-22T07:32:33.916Z,12.57
2023-02-22T07:34:41.018Z,14.52
2023-02-22T07:36:49.206Z,17.30
2023-02-22T07:38:56.199Z,13.27
2023-02-22T07:41:05.334Z,13.45
2023-02-22T07:43:20.083Z,15.15
2023-02-22T07:45:28.447Z,14.35
2023-02-22T07:47:35.371Z,16.30
2023-02-22T07:49:42.759Z,13.60
2023-02-22T07:51:49.634Z,14.50
2023-02-22T07:53:56.918Z,14.20
2023-02-22T07:56:06.502Z,14.45
2023-02-22T07:58:18.905Z,13.25
2023-02-22T08:00:28.601Z,15.00
2023-02-22T08:02:35.904Z,15.25
2023-02-22T08:04:42.807Z,15.23
2023-02-22T08:06:50.638Z,14.95
2023-02-22T08:08:58.195Z,14.15
2023-02-22T08:11:07.527Z,14.30
2023-02-22T08:13:15.065Z,14.43
2023-02-22T08:15:25.323Z,16.30
2023-02-22T08:17:32.298Z,16.20
2023-02-22T08:19:40.294Z,15.18
2023-02-22T08:21:47.940Z,15.07
2023-02-22T08:23:57.070Z,15.15
2023-02-22T08:26:12.235Z,17.42
2023-02-22T08:28:23.727Z,13.85
2023-02-22T08:30:32.091Z,15.55
2023-02-22T08:32:39.538Z,16.35
2023-02-22T08:34:47.103Z,14.82
2023-02-22T08:36:54.299Z,15.43
2023-02-22T08:39:01.316Z,16.70
2023-02-22T08:41:10.352Z,18.45
2023-02-22T08:43:18.140Z,20.33
2023-02-22T08:45:25.437Z,14.32
2023-02-22T08:47:32.498Z,15.10
2023-02-22T08:49:39.726Z,17.42
2023-02-22T08:51:46.808Z,15.48
2023-02-22T08:53:54.500Z,17.35
2023-02-22T08:56:01.432Z,15.15
2023-02-22T08:58:12.109Z,15.27
2023-02-22T09:00:20.393Z,16.23
2023-02-22T09:02:27.730Z,15.68
2023-02-22T09:04:34.554Z,16.63
2023-02-22T09:06:44.197Z,13.85
2023-02-22T09:08:51.070Z,16.77
2023-02-22T09:10:58.504Z,15.43
2023-02-22T09:13:05.925Z,17.30
2023-02-22T09:15:16.246Z,15.48
2023-02-22T09:17:23.170Z,15.18
2023-02-22T09:19:30.507Z,15.27
2023-02-22T09:21:37.417Z,15.18
2023-02-22T09:23:44.665Z,16.85
2023-02-22T09:25:51.950Z,16.20
2023-02-22T09:28:00.498Z,17.52
2023-02-22T09:30:07.617Z,19.48
2023-02-22T09:32:19.141Z,14.52
2023-02-22T09:34:30.658Z,14.13
2023-02-22T09:38:43.894Z,16.25
2023-02-22T09:40:55.330Z,14.20
2023-02-22T09:43:18.125Z,17.88
2023-02-22T09:45:31.365Z,18.10
2023-02-22T09:47:47.623Z,14.15
2023-02-22T09:50:03.384Z,16.38
2023-02-22T09:52:18.132Z,16.10
2023-02-22T09:54:31.100Z,15.30
2023-02-22T09:56:39.104Z,17.75
2023-02-22T09:58:48.439Z,16.00
2023-02-22T10:01:00.687Z,14.35
2023-02-22T10:03:24.804Z,16.38
2023-02-22T10:05:38.703Z,19.92
2023-02-22T10:07:50.902Z,16.95
2023-02-22T10:10:00.240Z,15.02
2023-02-22T10:12:13.714Z,14.07
2023-02-22T10:14:46.043Z,14.52
2023-02-22T10:17:00.544Z,14.35
2023-02-22T10:19:23.541Z,13.85
2023-02-22T10:21:50.383Z,13.80
2023-02-22T10:24:08.473Z,15.00
2023-02-22T10:26:20.465Z,17.75
2023-02-22T10:28:32.110Z,17.42
2023-02-22T10:30:43.455Z,14.60
2023-02-22T10:32:53.790Z,14.77
2023-02-22T10:35:06.556Z,14.70
2023-02-22T10:37:26.929Z,15.85
2023-02-22T10:39:36.029Z,18.65
2023-02-22T10:41:48.275Z,20.30
2023-02-22T10:43:55.196Z,16.45
2023-02-22T10:46:07.276Z,15.98
2023-02-22T10:48:19.443Z,17.77
2023-02-22T10:50:30.515Z,16.00
2023-02-22T10:52:38.882Z,16.45
2023-02-22T10:54:48.720Z,16.60
2023-02-22T10:56:57.692Z,17.10
2023-02-22T10:59:08.617Z,17.40
2023-02-22T11:01:27.518Z,16.13
2023-02-22T11:03:35.782Z,18.23
2023-02-22T11:05:45.057Z,16.17
2023-02-22T11:07:52.800Z,16.25
2023-02-22T11:10:01.873Z,15.50
2023-02-22T11:12:13.818Z,18.55
2023-02-22T11:14:31.241Z,19.75
2023-02-22T11:16:41.028Z,20.13
2023-02-22T11:18:48.981Z,19.98
2023-02-22T11:21:08.707Z,19.25
2023-02-22T11:23:24.797Z,27.63
2023-02-22T11:25:35.768Z,31.70
2023-02-22T11:27:47.919Z,34.15
2023-02-22T11:29:56.123Z,26.65
2023-02-22T11:32:08.066Z,19.92
2023-02-22T11:34:32.200Z,21.05
2023-02-22T11:36:43.007Z,21.55
2023-02-22T11:39:01.114Z,26.60
2023-02-22T11:41:19.358Z,23.08
2023-02-22T11:43:26.779Z,22.67
2023-02-22T11:45:34.003Z,27.92
2023-02-22T11:47:55.782Z,24.48
2023-02-22T11:50:03.301Z,25.17
2023-02-22T11:52:27.267Z,23.50
2023-02-22T11:55:08.471Z,24.98
2023-02-22T11:57:25.944Z,24.83
2023-02-22T11:59:39.577Z,25.83
2023-02-22T12:01:52.443Z,25.73
2023-02-22T12:04:37.879Z,24.60
2023-02-22T12:06:50.788Z,25.27
2023-02-22T12:09:10.973Z,23.23
2023-02-22T12:11:23.972Z,27.33
2023-02-22T12:13:43.360Z,28.42
2023-02-22T12:15:57.320Z,35.95
2023-02-22T12:18:09.650Z,23.63
2023-02-22T12:20:25.845Z,24.63
2023-02-22T12:22:36.254Z,26.88
2023-02-22T12:24:50.032Z,27.10
2023-02-22T12:27:04.566Z,27.40
2023-02-22T12:29:19.204Z,29.00
2023-02-22T12:31:31.881Z,28.65
2023-02-22T12:33:52.641Z,27.95
2023-02-22T12:36:02.609Z,29.10
2023-02-22T12:38:19.007Z,26.33
2023-02-22T12:40:36.668Z,29.33
2023-02-22T12:42:53.125Z,26.05
2023-02-22T12:45:06.814Z,26.65
2023-02-22T12:47:21.375Z,24.77
2023-02-22T12:49:34.481Z,34.03
2023-02-22T12:51:48.721Z,27.55
2023-02-22T12:54:04.168Z,25.20
2023-02-22T12:56:25.286Z,25.88
2023-02-22T12:58:39.062Z,27.15
2023-02-22T13:00:51.470Z,29.42
2023-02-22T13:03:05.311Z,28.52
2023-02-22T13:05:18.920Z,28.65
2023-02-22T13:07:39.430Z,34.60
2023-02-22T13:10:24.451Z,40.75
2023-02-22T13:12:41.714Z,36.13
2023-02-22T13:15:05.383Z,49.67
2023-02-22T13:17:22.089Z,46.45
2023-02-22T13:19:38.898Z,32.58
2023-02-22T13:21:50.068Z,32.80
2023-02-22T13:24:06.263Z,38.50
2023-02-22T13:26:21.944Z,41.63
2023-02-22T13:28:42.387Z,51.65
2023-02-22T13:30:57.499Z,64.95
2023-02-22T13:33:38.784Z,51.67
2023-02-22T13:36:16.419Z,48.42
2023-02-22T13:38:53.714Z,48.15
2023-02-22T13:41:22.404Z,55.72
2023-02-22T13:43:57.488Z,55.90
2023-02-22T13:46:24.047Z,47.30
2023-02-22T13:48:55.780Z,46.67
2023-02-22T13:51:12.384Z,46.22
2023-02-22T13:53:23.465Z,43.13
2023-02-22T13:55:35.498Z,42.33
2023-02-22T13:57:49.284Z,41.65
2023-02-22T14:00:26.987Z,41.58
2023-02-22T14:02:57.508Z,39.72
2023-02-22T14:05:26.829Z,37.80
2023-02-22T14:07:58.265Z,41.15
2023-02-22T14:10:05.544Z,39.97
2023-02-22T14:12:12.728Z,40.15
2023-02-22T14:14:21.037Z,41.80
2023-02-22T14:16:30.421Z,41.65
2023-02-22T14:18:41.397Z,40.90
2023-02-22T14:20:49.032Z,38.28
2023-02-22T14:22:56.519Z,39.45
2023-02-22T14:25:03.448Z,39.20
2023-02-22T14:27:10.883Z,38.08
2023-02-22T14:29:22.723Z,40.22
2023-02-22T14:31:36.863Z,40.90
2023-02-22T14:34:09.855Z,45.20
2023-02-22T14:36:17.616Z,41.75
2023-02-22T14:38:24.886Z,44.03
2023-02-22T14:40:34.011Z,48.60
2023-02-22T14:42:45.559Z,52.15
2023-02-22T14:45:00.713Z,49.22
2023-02-22T14:47:13.423Z,52.47
2023-02-22T14:49:25.524Z,48.00
2023-02-22T14:51:39.054Z,45.70
2023-02-22T14:53:49.202Z,45.60
2023-02-22T14:56:03.362Z,48.53
2023-02-22T14:58:19.706Z,43.17
2023-02-22T15:00:33.333Z,47.50
2023-02-22T15:02:44.338Z,45.28
2023-02-22T15:04:56.584Z,51.20
2023-02-22T15:07:11.102Z,46.97
2023-02-22T15:09:27.691Z,43.92
2023-02-22T15:11:36.730Z,47.75
2023-02-22T15:13:54.888Z,46.40
2023-02-22T15:16:03.524Z,43.28
2023-02-22T15:18:24.800Z,48.78
2023-02-22T15:20:33.310Z,45.50
2023-02-22T15:22:41.530Z,45.50
2023-02-22T15:24:50.953Z,47.28
2023-02-22T15:27:03.002Z,54.25
2023-02-22T15:29:17.091Z,51.70
2023-02-22T15:31:32.441Z,43.47
2023-02-22T15:33:41.344Z,43.50
2023-02-22T15:35:48.881Z,44.10
2023-02-22T15:38:03.692Z,45.58
2023-02-22T15:40:15.683Z,44.10
2023-02-22T15:42:24.044Z,44.25
2023-02-22T15:44:31.721Z,43.15
2023-02-22T15:46:39.030Z,49.42
2023-02-22T15:48:47.931Z,46.53
2023-02-22T15:51:11.667Z,52.00
2023-02-22T15:53:30.313Z,45.45
2023-02-22T15:55:39.501Z,47.13
2023-02-22T15:57:47.904Z,51.90
2023-02-22T15:59:56.928Z,46.65
2023-02-22T16:02:04.456Z,42.90
2023-02-22T16:04:21.311Z,47.42
2023-02-22T16:06:36.289Z,47.10
2023-02-22T16:08:55.092Z,47.05
2023-02-22T16:11:05.503Z,45.15
2023-02-22T16:13:31.675Z,49.13
2023-02-22T16:15:40.241Z,51.72
2023-02-22T16:18:02.179Z,52.00
2023-02-22T16:20:36.492Z,50.38
2023-02-22T16:22:50.177Z,57.22
2023-02-22T16:24:57.816Z,49.47
2023-02-22T16:27:21.383Z,53.90
2023-02-22T16:29:30.274Z,48.78
2023-02-22T16:31:38.822Z,49.55
2023-02-22T16:33:46.591Z,49.88
2023-02-22T16:35:58.144Z,50.55
2023-02-22T16:38:07.151Z,56.05
2023-02-22T16:40:23.428Z,50.92
2023-02-22T16:42:30.192Z,50.80
2023-02-22T16:44:37.198Z,53.88
2023-02-22T16:46:44.700Z,56.03
2023-02-22T16:48:52.124Z,51.50
2023-02-22T16:51:04.645Z,55.53
2023-02-22T16:53:11.952Z,54.75
2023-02-22T16:55:21.451Z,50.28
2023-02-22T16:57:29.874Z,56.40
2023-02-22T16:59:40.096Z,53.78
2023-02-22T17:01:47.348Z,47.20
2023-02-22T17:03:55.244Z,48.50
2023-02-22T17:06:05.261Z,50.00
2023-02-22T17:08:12.231Z,44.47
2023-02-22T17:10:20.781Z,52.90
2023-02-22T17:12:27.858Z,43.50
2023-02-22T17:14:37.914Z,45.53
2023-02-22T17:16:45.087Z,43.13
2023-02-22T17:18:53.428Z,42.33
2023-02-22T17:21:00.339Z,38.75
2023-02-22T17:23:11.287Z,47.50
2023-02-22T17:25:26.459Z,43.17
2023-02-22T17:27:33.642Z,43.22
2023-02-22T17:29:41.949Z,41.47
2023-02-22T17:31:49.908Z,42.97
2023-02-22T17:33:57.446Z,41.08
2023-02-22T17:36:06.248Z,38.72
2023-02-22T17:38:14.741Z,38.13
2023-02-22T17:40:21.992Z,38.13
2023-02-22T17:42:28.952Z,36.00
2023-02-22T17:44:36.342Z,34.33
2023-02-22T17:46:44.141Z,38.33
2023-02-22T17:48:51.521Z,36.22
2023-02-22T17:50:58.375Z,40.88
2023-02-22T17:53:05.742Z,34.53
2023-02-22T17:55:14.912Z,36.65
2023-02-22T17:57:22.593Z,37.25
2023-02-22T17:59:29.478Z,38.03
2023-02-22T18:01:36.670Z,46.92
2023-02-22T18:03:43.531Z,40.75
2023-02-22T18:05:55.948Z,33.08
2023-02-22T18:08:03.273Z,33.95
2023-02-22T18:10:12.982Z,35.22
2023-02-22T18:12:21.807Z,37.08
2023-02-22T18:14:28.994Z,32.78
2023-02-22T18:16:37.407Z,36.03
2023-02-22T18:18:44.862Z,30.45
2023-02-22T18:20:53.158Z,33.80
2023-02-22T18:23:01.381Z,31.90
2023-02-22T18:25:08.914Z,34.00
2023-02-22T18:27:16.406Z,31.92
2023-02-22T18:29:24.998Z,30.90
2023-02-22T18:31:32.504Z,28.70
2023-02-22T18:33:39.998Z,33.25
2023-02-22T18:35:50.977Z,34.30
2023-02-22T18:37:57.882Z,32.90
2023-02-22T18:40:11.251Z,32.70
2023-02-22T18:42:18.552Z,34.42
2023-02-22T18:44:28.145Z,31.48
2023-02-22T18:46:35.288Z,31.85
2023-02-22T18:48:43.077Z,29.88
2023-02-22T18:50:50.048Z,31.58
2023-02-22T18:52:57.213Z,34.78
2023-02-22T18:55:03.985Z,35.70
2023-02-22T18:57:13.160Z,29.75
2023-02-22T18:59:20.155Z,33.10
2023-02-22T19:01:29.139Z,35.20
2023-02-22T19:03:39.973Z,28.98
2023-02-22T19:05:47.115Z,31.03
2023-02-22T19:07:54.054Z,31.17
2023-02-22T19:10:01.648Z,34.03
2023-02-22T19:12:09.288Z,34.97
2023-02-22T19:14:17.566Z,31.98
2023-02-22T19:16:25.509Z,32.17
2023-02-22T19:18:34.578Z,31.65
2023-02-22T19:22:54.670Z,32.35
2023-02-22T19:25:02.210Z,31.08
2023-02-22T19:27:09.386Z,35.50
2023-02-22T19:29:16.161Z,31.30
2023-02-22T19:31:27.241Z,33.90
2023-02-22T19:33:36.754Z,32.42
2023-02-22T19:35:49.127Z,32.45
2023-02-22T19:37:57.269Z,33.38
2023-02-22T19:40:08.138Z,37.63
2023-02-22T19:42:14.917Z,37.90
2023-02-22T19:44:21.781Z,33.55
2023-02-22T19:46:29.176Z,31.50
2023-02-22T19:48:38.165Z,31.38
2023-02-22T19:50:50.239Z,34.83
2023-02-22T19:52:57.430Z,31.83
2023-02-22T19:55:04.425Z,29.25
2023-02-22T19:57:12.252Z,31.58
2023-02-22T19:59:22.315Z,31.67
2023-02-22T20:01:30.968Z,30.45
2023-02-22T20:03:39.774Z,33.33
2023-02-22T20:05:46.926Z,167.98
2023-02-22T20:07:55.179Z,132.40
2023-02-22T20:10:02.359Z,59.58
2023-02-22T20:12:10.003Z,60.30
2023-02-22T20:14:22.198Z,54.67
2023-02-22T20:18:35.551Z,45.75
2023-02-22T20:20:44.922Z,40.00
2023-02-22T20:22:52.876Z,33.92
2023-02-22T20:24:59.854Z,32.13
2023-02-22T20:27:07.490Z,33.83
2023-02-22T20:29:15.144Z,32.28
2023-02-22T20:31:23.881Z,33.30
2023-02-22T20:33:31.018Z,35.25
2023-02-22T20:35:38.725Z,33.22
2023-02-22T20:37:47.392Z,29.83
2023-02-22T20:39:55.189Z,34.03
2023-02-22T20:42:03.757Z,32.83
2023-02-22T20:44:12.112Z,31.63
2023-02-22T20:46:19.189Z,30.23
2023-02-22T20:48:26.427Z,31.42
2023-02-22T20:50:34.069Z,35.67
2023-02-22T20:52:42.025Z,34.70
2023-02-22T20:54:50.738Z,36.47
2023-02-22T20:56:57.971Z,36.47
2023-02-22T20:59:06.789Z,32.63
2023-02-22T21:01:17.930Z,32.13
2023-02-22T21:03:25.196Z,32.50
2023-02-22T21:05:33.560Z,37.60
2023-02-22T21:07:40.944Z,28.30
2023-02-22T21:09:49.972Z,39.67
2023-02-22T21:11:57.003Z,31.70
2023-02-22T21:14:05.155Z,37.13
2023-02-22T21:16:14.620Z,33.95
2023-02-22T21:18:23.940Z,34.45
2023-02-22T21:20:32.134Z,34.65
2023-02-22T21:22:40.191Z,31.80
2023-02-22T21:24:48.842Z,34.40
2023-02-22T21:26:56.792Z,29.58
2023-02-22T21:29:05.737Z,32.78
2023-02-22T21:31:14.113Z,34.30
2023-02-22T21:33:21.159Z,31.05
2023-02-22T21:35:29.206Z,32.22
2023-02-22T21:37:36.133Z,28.35
2023-02-22T21:39:48.584Z,32.80
2023-02-22T21:42:01.050Z,33.83
2023-02-22T21:44:08.488Z,29.38
2023-02-22T21:46:15.479Z,33.80
2023-02-22T21:48:22.691Z,30.17
2023-02-22T21:50:30.296Z,32.67
2023-02-22T21:52:38.385Z,30.92
2023-02-22T21:54:45.566Z,32.05
2023-02-22T21:56:53.567Z,32.90
2023-02-22T21:59:04.877Z,35.67
2023-02-22T22:01:13.878Z,29.08
2023-02-22T22:03:22.896Z,31.65
2023-02-22T22:05:35.198Z,34.20
2023-02-22T22:09:57.545Z,33.47
2023-02-22T22:12:06.122Z,40.08
2023-02-22T22:14:15.340Z,37.47
2023-02-22T22:16:23.438Z,40.80
2023-02-22T22:18:30.620Z,37.97
2023-02-22T22:20:39.853Z,38.25
2023-02-22T22:22:47.491Z,29.58
2023-02-22T22:24:56.003Z,34.72
2023-02-22T22:27:04.824Z,43.83
2023-02-22T22:29:12.463Z,34.25
2023-02-22T22:31:22.596Z,35.53
2023-02-22T22:33:29.744Z,31.80
2023-02-22T22:35:37.188Z,28.52
2023-02-22T22:37:45.388Z,28.73
2023-02-22T22:39:52.570Z,29.48
2023-02-22T22:41:59.902Z,30.00
2023-02-22T22:44:07.140Z,24.60
2023-02-22T22:46:14.789Z,29.02
2023-02-22T22:48:26.112Z,25.65
2023-02-22T22:50:33.140Z,27.05
2023-02-22T22:52:40.574Z,25.48
2023-02-22T22:54:47.706Z,24.55
2023-02-22T22:56:55.860Z,25.05
2023-02-22T22:59:08.414Z,29.48
2023-02-22T23:01:20.472Z,25.98
2023-02-22T23:03:29.358Z,24.15
2023-02-22T23:05:40.916Z,26.02
2023-02-22T23:07:47.892Z,22.13
2023-02-22T23:09:55.260Z,23.23
2023-02-22T23:12:09.811Z,21.38
2023-02-22T23:14:20.449Z,22.67
2023-02-22T23:16:28.038Z,28.40
2023-02-22T23:18:37.425Z,24.50
2023-02-22T23:20:44.434Z,28.90
2023-02-22T23:22:53.423Z,22.70
2023-02-22T23:25:01.087Z,24.73
2023-02-22T23:27:11.681Z,21.85
2023-02-22T23:29:19.238Z,23.10
2023-02-22T23:31:27.042Z,22.55
2023-02-22T23:33:35.580Z,21.90
2023-02-22T23:35:43.482Z,24.83
2023-02-22T23:37:55.425Z,23.92
2023-02-22T23:40:02.962Z,21.33
2023-02-22T23:42:10.381Z,24.20
2023-02-22T23:44:18.468Z,21.20
2023-02-22T23:46:27.971Z,25.48
2023-02-22T23:48:37.020Z,25.48
2023-02-22T23:50:43.940Z,26.65
2023-02-22T23:52:51.069Z,22.23
2023-02-22T23:54:57.995Z,24.83
2023-02-22T23:57:05.687Z,24.83
2023-02-22T23:59:13.591Z,24.08
